Terminal Aerodrome Forecast
Issued by NWS Shreveport, LA

Home | Current Version | Previous Version | Text Only | Print | Product List | Glossary On
Versions: 1 2 3 4 5 6 7 8 9 10 11 12 13
000
FTUS44 KSHV 280528
TAFGGG
TAF
KGGG 280528Z 2806/2906 VRB04KT P6SM SKC
     FM280900 VRB03KT P6SM BKN020
     FM281900 15011KT P6SM SCT040=

USA.gov is the U.S. government's official web portal to all federal, state and local government web resources and services.